createdAt,value
2018-02-20T00:01:43.154Z,99456.11
2018-02-20T00:04:10.719Z,99446.63
2018-02-20T00:06:38.277Z,99453.39
2018-02-20T00:09:05.846Z,99455.94
2018-02-20T00:11:33.438Z,99445.70
2018-02-20T00:14:01.027Z,99440.66
2018-02-20T00:16:28.621Z,99442.63
2018-02-20T00:18:56.182Z,99437.16
2018-02-20T00:21:23.754Z,99431.27
2018-02-20T00:23:51.335Z,99438.16
2018-02-20T00:26:18.973Z,99437.67
2018-02-20T00:28:46.538Z,99423.65
2018-02-20T00:31:14.134Z,99427.13
2018-02-20T00:33:41.672Z,99429.33
2018-02-20T00:36:09.229Z,99424.39
2018-02-20T00:38:36.798Z,99420.69
2018-02-20T00:41:04.389Z,99418.85
2018-02-20T00:43:31.957Z,99413.74
2018-02-20T00:45:59.520Z,99413.39
2018-02-20T00:48:27.125Z,99412.87
2018-02-20T00:50:54.678Z,99412.04
2018-02-20T00:53:22.265Z,99415.45
2018-02-20T00:55:49.830Z,99400.66
2018-02-20T00:58:17.390Z,99411.32
2018-02-20T01:00:44.990Z,99407.11
2018-02-20T01:03:12.586Z,99396.09
2018-02-20T01:05:40.194Z,99404.63
2018-02-20T01:08:07.749Z,99404.63
2018-02-20T01:10:35.305Z,99400.84
2018-02-20T01:13:02.874Z,99406.98
2018-02-20T01:15:30.515Z,99403.54
2018-02-20T01:17:58.087Z,99404.41
2018-02-20T01:20:25.645Z,99399.63
2018-02-20T01:22:53.248Z,99395.38
2018-02-20T01:25:20.806Z,99394.94
2018-02-20T01:27:48.403Z,99398.30
2018-02-20T01:30:15.956Z,99392.31
2018-02-20T01:32:43.510Z,99384.70
2018-02-20T01:35:11.157Z,99391.03
2018-02-20T01:37:38.723Z,99383.26
2018-02-20T01:40:06.314Z,99384.54
2018-02-20T01:42:33.874Z,99372.40
2018-02-20T01:45:01.413Z,99373.66
2018-02-20T01:47:28.996Z,99370.26
2018-02-20T01:49:56.661Z,99368.09
2018-02-20T01:52:24.230Z,99374.03
2018-02-20T01:54:51.808Z,99364.70
2018-02-20T01:57:19.426Z,99370.39
2018-02-20T01:59:46.984Z,99368.53
2018-02-20T02:02:14.568Z,99362.02
2018-02-20T02:04:42.389Z,99359.92
2018-02-20T02:07:09.942Z,99370.31
2018-02-20T02:09:37.508Z,99367.47
2018-02-20T02:12:05.090Z,99364.78
2018-02-20T02:14:32.861Z,99363.22
2018-02-20T02:17:00.422Z,99354.88
2018-02-20T02:19:27.992Z,99363.06
2018-02-20T02:21:55.890Z,99362.64
2018-02-20T02:24:23.459Z,99355.75
2018-02-20T02:26:51.040Z,99357.14
2018-02-20T02:29:18.602Z,99348.98
2018-02-20T02:31:46.240Z,99350.11
2018-02-20T02:34:14.005Z,99361.28
2018-02-20T02:36:41.723Z,99354.72
2018-02-20T02:39:09.286Z,99354.97
2018-02-20T02:41:36.845Z,99352.52
2018-02-20T02:44:04.558Z,99359.88
2018-02-20T02:46:32.120Z,99361.51
2018-02-20T02:49:00.019Z,99344.56
2018-02-20T02:51:27.577Z,99359.16
2018-02-20T02:53:55.349Z,99361.30
2018-02-20T02:56:23.066Z,99354.86
2018-02-20T02:58:50.785Z,99356.44
2018-02-20T03:01:18.603Z,99350.59
2018-02-20T03:03:46.235Z,99362.55
2018-02-20T03:06:13.855Z,99360.22
2018-02-20T03:08:41.661Z,99349.20
2018-02-20T03:11:09.222Z,99353.80
2018-02-20T03:13:36.794Z,99357.64
2018-02-20T03:16:04.354Z,99352.95
2018-02-20T03:18:31.923Z,99351.97
2018-02-20T03:20:59.478Z,99349.06
2018-02-20T03:23:27.264Z,99351.60
2018-02-20T03:25:54.871Z,99351.88
2018-02-20T03:28:22.431Z,99346.06
2018-02-20T03:30:50.195Z,99342.07
2018-02-20T03:33:17.785Z,99341.84
2018-02-20T03:35:45.446Z,99343.42
2018-02-20T03:38:13.016Z,99348.46
2018-02-20T03:40:40.649Z,99347.98
2018-02-20T03:43:08.407Z,99344.92
2018-02-20T03:45:35.962Z,99346.92
2018-02-20T03:48:03.539Z,99347.69
2018-02-20T03:50:31.101Z,99346.55
2018-02-20T03:52:58.879Z,99351.23
2018-02-20T03:55:26.597Z,99350.60
2018-02-20T03:57:54.210Z,99343.15
2018-02-20T04:00:21.906Z,99347.34
2018-02-20T04:02:49.623Z,99347.34
2018-02-20T04:05:17.342Z,99349.67
2018-02-20T04:07:44.902Z,99348.88
2018-02-20T04:10:12.474Z,99347.46
2018-02-20T04:12:40.224Z,99347.76
2018-02-20T04:15:07.831Z,99341.80
2018-02-20T04:17:35.380Z,99342.08
2018-02-20T04:20:02.946Z,99341.59
2018-02-20T04:22:30.515Z,99341.59
2018-02-20T04:24:58.082Z,99332.16
2018-02-20T04:27:25.830Z,99340.52
2018-02-20T04:29:53.402Z,99337.02
2018-02-20T04:32:21.022Z,99344.63
2018-02-20T04:34:48.589Z,99342.12
2018-02-20T04:37:16.146Z,99341.34
2018-02-20T04:39:43.714Z,99334.51
2018-02-20T04:42:11.286Z,99342.56
2018-02-20T04:44:39.021Z,99336.23
2018-02-20T04:47:06.589Z,99334.39
2018-02-20T04:49:34.201Z,99335.88
2018-02-20T04:52:01.763Z,99332.81
2018-02-20T04:54:29.318Z,99337.16
2018-02-20T04:56:56.863Z,99324.86
2018-02-20T04:59:24.423Z,99329.76
2018-02-20T05:01:52.180Z,99329.62
2018-02-20T05:04:19.748Z,99330.05
2018-02-20T05:06:47.366Z,99321.35
2018-02-20T05:09:14.932Z,99322.49
2018-02-20T05:11:42.652Z,99328.36
2018-02-20T05:14:10.464Z,99322.00
2018-02-20T05:16:38.154Z,99322.30
2018-02-20T05:19:05.803Z,99331.67
2018-02-20T05:21:33.625Z,99330.73
2018-02-20T05:24:01.199Z,99333.04
2018-02-20T05:26:28.965Z,99331.81
2018-02-20T05:28:56.545Z,99337.23
2018-02-20T05:31:24.126Z,99331.05
2018-02-20T05:33:51.691Z,99342.98
2018-02-20T05:36:19.251Z,99350.74
2018-02-20T05:38:46.945Z,99354.52
2018-02-20T05:41:14.642Z,99345.92
2018-02-20T05:43:42.451Z,99352.87
2018-02-20T05:46:10.173Z,99360.08
2018-02-20T05:48:37.731Z,99350.90
2018-02-20T05:51:05.304Z,99352.25
2018-02-20T05:53:32.870Z,99358.88
2018-02-20T05:56:00.435Z,99355.15
2018-02-20T05:58:28.010Z,99363.20
2018-02-20T06:00:55.663Z,99357.50
2018-02-20T06:03:23.229Z,99355.75
2018-02-20T06:05:50.785Z,99359.13
2018-02-20T06:08:18.354Z,99358.88
2018-02-20T06:10:45.926Z,99353.80
2018-02-20T06:13:13.700Z,99360.87
2018-02-20T06:15:41.303Z,99359.41
2018-02-20T06:18:08.873Z,99360.20
2018-02-20T06:20:36.654Z,99362.34
2018-02-20T06:23:04.373Z,99348.27
2018-02-20T06:25:31.946Z,99354.95
2018-02-20T06:27:59.708Z,99354.73
2018-02-20T06:30:27.259Z,99353.59
2018-02-20T06:32:54.822Z,99352.22
2018-02-20T06:35:22.382Z,99348.14
2018-02-20T06:37:49.979Z,99332.30
2018-02-20T06:40:17.899Z,99327.22
2018-02-20T06:42:45.507Z,99323.82
2018-02-20T06:45:13.073Z,99320.03
2018-02-20T06:47:40.642Z,99316.55
2018-02-20T06:50:08.244Z,99321.95
2018-02-20T06:52:35.802Z,99324.22
2018-02-20T06:55:03.605Z,99331.40
2018-02-20T06:57:31.324Z,99330.39
2018-02-20T06:59:58.882Z,99321.79
2018-02-20T07:02:26.458Z,99325.63
2018-02-20T07:04:54.005Z,99325.12
2018-02-20T07:07:21.794Z,99320.27
2018-02-20T07:09:49.354Z,99326.55
2018-02-20T07:12:16.976Z,99328.67
2018-02-20T07:14:44.568Z,99329.29
2018-02-20T07:17:12.126Z,99328.99
2018-02-20T07:19:39.693Z,99330.15
2018-02-20T07:22:07.254Z,99330.27
2018-02-20T07:24:34.826Z,99333.06
2018-02-20T07:27:02.386Z,99326.55
2018-02-20T07:29:30.023Z,99328.27
2018-02-20T07:31:57.741Z,99323.33
2018-02-20T07:34:25.392Z,99321.26
2018-02-20T07:36:52.966Z,99315.19
2018-02-20T07:39:20.688Z,99316.07
2018-02-20T07:41:48.444Z,99329.39
2018-02-20T07:44:16.009Z,99321.13
2018-02-20T07:46:43.634Z,99322.25
2018-02-20T07:49:11.229Z,99329.36
2018-02-20T07:51:38.799Z,99331.20
2018-02-20T07:54:06.379Z,99324.59
2018-02-20T07:56:34.151Z,99319.61
2018-02-20T07:59:01.971Z,99316.09
2018-02-20T08:01:29.785Z,99323.44
2018-02-20T08:03:57.608Z,99314.35
2018-02-20T08:06:25.170Z,99319.02
2018-02-20T08:08:52.945Z,99315.14
2018-02-20T08:11:20.765Z,99314.02
2018-02-20T08:13:48.480Z,99308.01
2018-02-20T08:16:16.106Z,99309.48
2018-02-20T08:18:43.678Z,99306.25
2018-02-20T08:21:11.328Z,99300.85
2018-02-20T08:23:39.029Z,99307.43
2018-02-20T08:26:06.712Z,99301.95
2018-02-20T08:28:34.281Z,99303.49
2018-02-20T08:31:01.862Z,99302.52
2018-02-20T08:33:29.693Z,99297.30
2018-02-20T08:35:57.250Z,99299.18
2018-02-20T08:38:24.810Z,99296.27
2018-02-20T08:40:52.384Z,99297.66
2018-02-20T08:43:20.200Z,99294.56
2018-02-20T08:45:47.999Z,99294.03
2018-02-20T08:48:15.690Z,99290.94
2018-02-20T08:50:43.242Z,99293.51
2018-02-20T08:53:10.969Z,99285.22
2018-02-20T08:55:38.687Z,99286.84
2018-02-20T08:58:06.306Z,99281.97
2018-02-20T09:00:34.123Z,99281.38
2018-02-20T09:03:01.687Z,99282.81
2018-02-20T09:05:29.464Z,99286.14
2018-02-20T09:07:57.026Z,99292.18
2018-02-20T09:10:24.575Z,99291.20
2018-02-20T09:12:52.277Z,99291.48
2018-02-20T09:15:19.939Z,99293.20
2018-02-20T09:17:47.522Z,99294.41
2018-02-20T09:20:15.074Z,99285.39
2018-02-20T09:22:42.784Z,99289.59
2018-02-20T09:25:10.503Z,99287.55
2018-02-20T09:27:38.070Z,99287.80
2018-02-20T09:30:05.838Z,99286.33
2018-02-20T09:32:33.464Z,99282.70
2018-02-20T09:35:01.025Z,99281.42
2018-02-20T09:37:28.589Z,99278.00
2018-02-20T09:39:56.216Z,99274.12
2018-02-20T09:42:23.819Z,99273.48
2018-02-20T09:44:51.386Z,99271.53
2018-02-20T09:47:18.955Z,99267.47
2018-02-20T09:49:46.570Z,99263.27
2018-02-20T09:52:14.111Z,99261.01
2018-02-20T09:54:41.681Z,99259.13
2018-02-20T09:57:09.435Z,99260.05
2018-02-20T09:59:36.990Z,99257.62
2018-02-20T10:02:04.564Z,99253.23
2018-02-20T10:04:32.200Z,99250.66
2018-02-20T10:06:59.850Z,99253.90
2018-02-20T10:09:27.414Z,99247.98
2018-02-20T10:11:54.980Z,99243.48
2018-02-20T10:14:22.556Z,99235.09
2018-02-20T10:16:50.134Z,99239.07
2018-02-20T10:19:17.895Z,99234.79
2018-02-20T10:21:45.450Z,99236.02
2018-02-20T10:24:13.078Z,99234.61
2018-02-20T10:26:40.636Z,99231.70
2018-02-20T10:29:08.366Z,99230.84
2018-02-20T10:31:36.112Z,99218.94
2018-02-20T10:34:03.793Z,99212.80
2018-02-20T10:36:31.509Z,99211.19
2018-02-20T10:38:59.238Z,99206.67
2018-02-20T10:41:26.891Z,99210.77
2018-02-20T10:43:54.494Z,99208.11
2018-02-20T10:46:22.055Z,99209.27
2018-02-20T10:48:49.626Z,99202.63
2018-02-20T10:51:17.226Z,99198.48
2018-02-20T10:53:44.807Z,99199.56
2018-02-20T10:56:12.357Z,99197.45
2018-02-20T10:58:39.978Z,99190.84
2018-02-20T11:01:07.666Z,99189.81
2018-02-20T11:03:35.227Z,99184.16
2018-02-20T11:06:02.829Z,99181.97
2018-02-20T11:08:30.378Z,99179.19
2018-02-20T11:10:58.171Z,99173.91
2018-02-20T11:13:25.703Z,99170.22
2018-02-20T11:15:53.325Z,99164.02
2018-02-20T11:18:20.874Z,99157.67
2018-02-20T11:20:48.742Z,99159.69
2018-02-20T11:23:16.318Z,99158.18
2018-02-20T11:25:44.089Z,99154.27
2018-02-20T11:28:11.649Z,99147.63
2018-02-20T11:30:39.208Z,99150.46
2018-02-20T11:33:06.825Z,99144.67
2018-02-20T11:35:34.549Z,99147.48
2018-02-20T11:38:02.102Z,99148.89
2018-02-20T11:40:29.815Z,99152.41
2018-02-20T11:42:57.396Z,99146.19
2018-02-20T11:45:24.968Z,99142.94
2018-02-20T11:47:52.639Z,99144.77
2018-02-20T11:50:20.238Z,99143.37
2018-02-20T11:52:47.988Z,99145.77
2018-02-20T11:55:15.794Z,99145.44
2018-02-20T11:57:43.354Z,99140.72
2018-02-20T12:00:11.130Z,99138.33
2018-02-20T12:02:38.948Z,99131.21
2018-02-20T12:05:06.634Z,99126.02
2018-02-20T12:07:34.486Z,99129.28
2018-02-20T12:10:02.191Z,99127.61
2018-02-20T12:12:29.753Z,99129.05
2018-02-20T12:14:57.358Z,99115.66
2018-02-20T12:17:25.162Z,99117.97
2018-02-20T12:19:52.975Z,99099.18
2018-02-20T12:22:20.675Z,99109.05
2018-02-20T12:24:48.290Z,99102.75
2018-02-20T12:27:15.872Z,99102.12
2018-02-20T12:29:43.648Z,99093.87
2018-02-20T12:32:11.210Z,99105.30
2018-02-20T12:34:38.984Z,99099.39
2018-02-20T12:37:06.595Z,99099.14
2018-02-20T12:39:34.146Z,99094.87
2018-02-20T12:42:01.765Z,99103.93
2018-02-20T12:44:29.347Z,99099.67
2018-02-20T12:46:56.958Z,99097.48
2018-02-20T12:49:24.518Z,99095.61
2018-02-20T12:51:52.309Z,99094.65
2018-02-20T12:54:19.875Z,99086.60
2018-02-20T12:56:47.439Z,99094.23
2018-02-20T12:59:15.053Z,99078.98
2018-02-20T13:01:42.650Z,99080.49
2018-02-20T13:04:10.372Z,99080.37
2018-02-20T13:06:38.089Z,99062.17
2018-02-20T13:09:05.666Z,99080.75
2018-02-20T13:11:33.456Z,99082.91
2018-02-20T13:14:01.056Z,99078.17
2018-02-20T13:16:28.890Z,99080.37
2018-02-20T13:18:56.541Z,99072.06
2018-02-20T13:21:24.326Z,99079.47
2018-02-20T13:23:51.879Z,99080.50
2018-02-20T13:26:19.456Z,99075.89
2018-02-20T13:28:47.071Z,99071.30
2018-02-20T13:31:14.669Z,99067.75
2018-02-20T13:33:42.246Z,99073.96
2018-02-20T13:36:09.810Z,99070.47
2018-02-20T13:38:37.370Z,99066.80
2018-02-20T13:41:05.001Z,99060.14
2018-02-20T13:43:32.578Z,99061.56
2018-02-20T13:46:00.272Z,99058.79
2018-02-20T13:48:27.989Z,99053.41
2018-02-20T13:50:55.604Z,99052.58
2018-02-20T13:53:23.420Z,99052.28
2018-02-20T13:55:50.968Z,99061.03
2018-02-20T13:58:18.534Z,99052.98
2018-02-20T14:00:46.098Z,99047.34
2018-02-20T14:03:13.659Z,99048.38
2018-02-20T14:05:41.275Z,99051.77
2018-02-20T14:08:09.066Z,99047.84
2018-02-20T14:10:36.611Z,99053.33
2018-02-20T14:13:04.297Z,99052.34
2018-02-20T14:15:31.910Z,99050.28
2018-02-20T14:17:59.739Z,99048.69
2018-02-20T14:20:27.345Z,99047.91
2018-02-20T14:22:54.918Z,99037.14
2018-02-20T14:25:22.481Z,99038.67
2018-02-20T14:27:50.052Z,99035.55
2018-02-20T14:30:17.927Z,99034.04
2018-02-20T14:32:45.746Z,99035.27
2018-02-20T14:35:13.302Z,99038.05
2018-02-20T14:37:41.083Z,99016.38
2018-02-20T14:40:08.642Z,99028.05
2018-02-20T14:42:36.265Z,99025.02
2018-02-20T14:45:03.884Z,99032.95
2018-02-20T14:47:31.626Z,99035.05
2018-02-20T14:49:59.343Z,99027.23
2018-02-20T14:52:27.058Z,99027.47
2018-02-20T14:54:54.742Z,99032.06
2018-02-20T14:57:22.533Z,99030.00
2018-02-20T14:59:50.345Z,99031.09
2018-02-20T15:02:18.870Z,99025.30
2018-02-20T15:04:46.467Z,99029.16
2018-02-20T15:07:14.092Z,99032.57
2018-02-20T15:09:41.797Z,99014.77
2018-02-20T15:12:09.518Z,99017.98
2018-02-20T15:14:37.159Z,99020.14
2018-02-20T15:17:04.974Z,99020.84
2018-02-20T15:19:32.586Z,99025.89
2018-02-20T15:22:00.410Z,99028.76
2018-02-20T15:24:28.133Z,99021.77
2018-02-20T15:26:55.719Z,99024.75
2018-02-20T15:29:23.274Z,99022.78
2018-02-20T15:31:50.894Z,99020.61
2018-02-20T15:34:18.449Z,99037.11
2018-02-20T15:36:46.008Z,99030.80
2018-02-20T15:39:13.615Z,99030.72
2018-02-20T15:41:41.170Z,99027.73
2018-02-20T15:44:08.972Z,99022.89
2018-02-20T15:46:36.542Z,99028.57
2018-02-20T15:49:04.284Z,99031.38
2018-02-20T15:51:31.860Z,99031.61
2018-02-20T15:53:59.428Z,99040.86
2018-02-20T15:56:27.162Z,99039.48
2018-02-20T15:58:54.733Z,99029.77
2018-02-20T16:01:22.601Z,99025.97
2018-02-20T16:03:50.316Z,99028.98
2018-02-20T16:06:17.874Z,99030.67
2018-02-20T16:08:45.441Z,99030.99
2018-02-20T16:11:13.177Z,99032.91
2018-02-20T16:13:40.783Z,99022.72
2018-02-20T16:16:18.434Z,99027.44
2018-02-20T16:18:46.006Z,99028.00
2018-02-20T16:21:13.567Z,99029.73
2018-02-20T16:23:41.395Z,99035.56
2018-02-20T16:26:08.976Z,99032.13
2018-02-20T16:28:36.539Z,99037.69
2018-02-20T16:31:04.164Z,99030.95
2018-02-20T16:33:31.946Z,99032.53
2018-02-20T16:35:59.661Z,99026.52
2018-02-20T16:38:27.377Z,99027.99
2018-02-20T16:40:55.093Z,99032.90
2018-02-20T16:43:22.715Z,99035.56
2018-02-20T16:45:50.279Z,99035.75
2018-02-20T16:48:17.987Z,99033.23
2018-02-20T16:50:45.794Z,99035.72
2018-02-20T16:53:13.354Z,99037.22
2018-02-20T16:55:40.975Z,99031.14
2018-02-20T16:58:08.544Z,99040.56
2018-02-20T17:00:36.365Z,99040.02
2018-02-20T17:03:04.039Z,99036.08
2018-02-20T17:05:31.780Z,99036.80
2018-02-20T17:07:59.394Z,99039.90
2018-02-20T17:10:26.954Z,99040.34
2018-02-20T17:12:54.522Z,99040.14
2018-02-20T17:15:22.245Z,99043.84
2018-02-20T17:17:49.961Z,99042.92
2018-02-20T17:20:17.686Z,99044.62
2018-02-20T17:22:45.257Z,99040.95
2018-02-20T17:25:12.818Z,99042.17
2018-02-20T17:27:40.454Z,99046.69
2018-02-20T17:30:08.029Z,99047.55
2018-02-20T17:32:35.646Z,99046.41
2018-02-20T17:35:03.374Z,99051.13
2018-02-20T17:37:30.954Z,99045.36
2018-02-20T17:39:58.517Z,99047.81
2018-02-20T17:42:26.208Z,99052.53
2018-02-20T17:44:53.836Z,99056.34
2018-02-20T17:47:21.405Z,99050.57
2018-02-20T17:49:49.096Z,99055.21
2018-02-20T17:52:16.812Z,99049.14
2018-02-20T17:54:44.378Z,99046.75
2018-02-20T17:57:12.071Z,99042.66
2018-02-20T17:59:39.686Z,99048.70
2018-02-20T18:02:07.248Z,99048.94
2018-02-20T18:04:34.821Z,99044.27
2018-02-20T18:07:02.463Z,99035.94
2018-02-20T18:09:30.074Z,99040.39
2018-02-20T18:11:57.634Z,99042.18
2018-02-20T18:14:25.201Z,99036.11
2018-02-20T18:16:52.776Z,99045.02
2018-02-20T18:19:20.333Z,99038.41
2018-02-20T18:21:48.171Z,99046.58
2018-02-20T18:24:15.731Z,99041.94
2018-02-20T18:26:43.382Z,99046.39
2018-02-20T18:29:10.958Z,99045.38
2018-02-20T18:31:38.507Z,99044.95
2018-02-20T18:34:06.164Z,99045.96
2018-02-20T18:36:33.861Z,99055.86
2018-02-20T18:39:01.415Z,99056.43
2018-02-20T18:41:29.160Z,99057.63
2018-02-20T18:43:56.741Z,99056.04
2018-02-20T18:46:24.426Z,99052.75
2018-02-20T18:48:52.046Z,99046.19
2018-02-20T18:51:19.872Z,99040.83
2018-02-20T18:53:47.490Z,99046.66
2018-02-20T18:56:15.063Z,99035.19
2018-02-20T18:58:42.677Z,99042.98
2018-02-20T19:01:10.337Z,99040.75
2018-02-20T19:03:37.904Z,99037.22
2018-02-20T19:06:05.477Z,99033.31
2018-02-20T19:08:33.196Z,99034.30
2018-02-20T19:11:00.808Z,99035.64
2018-02-20T19:13:28.369Z,99031.72
2018-02-20T19:15:56.050Z,99031.27
2018-02-20T19:18:23.636Z,99032.92
2018-02-20T19:20:51.212Z,99036.66
2018-02-20T19:23:18.829Z,99038.66
2018-02-20T19:25:46.410Z,99035.45
2018-02-20T19:28:14.138Z,99032.56
2018-02-20T19:30:41.735Z,99034.91
2018-02-20T19:33:09.289Z,99027.17
2018-02-20T19:35:38.000Z,99029.53
2018-02-20T19:38:05.817Z,99036.84
2018-02-20T19:40:33.634Z,99035.95
2018-02-20T19:43:01.202Z,99034.58
2018-02-20T19:45:28.794Z,99030.66
2018-02-20T19:47:56.420Z,99036.90
2018-02-20T19:50:24.321Z,99035.44
2018-02-20T19:52:51.886Z,99028.14
2018-02-20T19:55:19.470Z,99041.05
2018-02-20T19:57:47.260Z,99037.62
2018-02-20T20:00:14.834Z,99032.48
2018-02-20T20:02:42.596Z,99031.11
2018-02-20T20:05:10.171Z,99028.27
2018-02-20T20:07:37.761Z,99033.52
2018-02-20T20:10:05.440Z,99028.47
2018-02-20T20:12:33.010Z,99023.59
2018-02-20T20:15:00.599Z,99017.52
2018-02-20T20:17:28.151Z,99013.52
2018-02-20T20:19:55.809Z,99017.14
2018-02-20T20:22:23.388Z,99010.33
2018-02-20T20:24:51.157Z,99009.86
2018-02-20T20:27:18.734Z,99007.02
2018-02-20T20:29:46.303Z,99005.45
2018-02-20T20:32:13.900Z,99006.91
2018-02-20T20:34:41.476Z,99007.98
2018-02-20T20:37:09.100Z,99001.32
2018-02-20T20:39:36.864Z,99000.86
2018-02-20T20:42:04.437Z,99001.27
2018-02-20T20:44:32.024Z,98998.47
2018-02-20T20:46:59.818Z,98999.52
2018-02-20T20:49:27.381Z,99001.97
2018-02-20T20:51:55.120Z,98996.28
2018-02-20T20:54:22.674Z,99004.96
2018-02-20T20:56:50.490Z,99001.45
2018-02-20T20:59:18.099Z,99004.13
2018-02-20T21:01:45.670Z,98998.30
2018-02-20T21:04:13.253Z,98996.86
2018-02-20T21:06:40.818Z,98997.48
2018-02-20T21:09:08.406Z,99002.75
2018-02-20T21:11:36.196Z,98994.20
2018-02-20T21:14:03.783Z,98994.81
2018-02-20T21:16:31.440Z,98992.50
2018-02-20T21:18:59.004Z,98990.12
2018-02-20T21:21:26.581Z,98992.27
2018-02-20T21:23:54.163Z,98986.05
2018-02-20T21:26:21.972Z,98991.48
2018-02-20T21:28:49.530Z,98994.14
2018-02-20T21:31:17.343Z,98993.29
2018-02-20T21:33:44.991Z,98989.24
2018-02-20T21:36:12.553Z,98991.37
2018-02-20T21:38:40.129Z,98985.73
2018-02-20T21:41:07.726Z,98980.59
2018-02-20T21:43:35.286Z,98986.70
2018-02-20T21:46:02.854Z,98983.80
2018-02-20T21:48:30.409Z,98982.75
2018-02-20T21:50:57.974Z,98983.33
2018-02-20T21:53:25.535Z,98987.89
2018-02-20T21:55:53.079Z,98986.94
2018-02-20T21:58:20.642Z,98989.05
2018-02-20T22:00:48.266Z,98988.37
2018-02-20T22:03:15.958Z,98988.89
2018-02-20T22:05:43.525Z,98984.61
2018-02-20T22:08:11.193Z,98981.97
2018-02-20T22:10:38.925Z,98979.70
2018-02-20T22:13:06.459Z,98983.62
2018-02-20T22:15:34.046Z,98984.49
2018-02-20T22:18:01.663Z,98980.50
2018-02-20T22:20:29.218Z,98987.81
2018-02-20T22:22:56.783Z,98984.23
2018-02-20T22:25:24.378Z,98977.29
2018-02-20T22:27:52.150Z,98977.26
2018-02-20T22:30:19.702Z,98976.19
2018-02-20T22:32:47.275Z,98969.67
2018-02-20T22:35:14.838Z,98971.08
2018-02-20T22:37:42.390Z,98962.98
2018-02-20T22:40:10.016Z,98959.38
2018-02-20T22:42:37.605Z,98956.29
2018-02-20T22:45:05.158Z,98955.65
2018-02-20T22:47:32.726Z,98951.47
2018-02-20T22:50:00.415Z,98956.80
2018-02-20T22:52:27.981Z,98958.67
2018-02-20T22:54:55.665Z,98954.20
2018-02-20T22:57:23.214Z,98958.96
2018-02-20T22:59:50.783Z,98951.25
2018-02-20T23:02:18.370Z,98958.77
2018-02-20T23:04:46.198Z,98955.10
2018-02-20T23:07:13.770Z,98954.55
2018-02-20T23:09:41.332Z,98953.97
2018-02-20T23:12:08.962Z,98952.85
2018-02-20T23:14:36.566Z,98943.05
2018-02-20T23:17:04.131Z,98952.17
2018-02-20T23:19:31.710Z,98953.37
2018-02-20T23:21:59.282Z,98947.42
2018-02-20T23:24:26.850Z,98946.58
2018-02-20T23:26:54.405Z,98936.19
2018-02-20T23:29:21.969Z,98952.14
2018-02-20T23:31:49.711Z,98937.16
2018-02-20T23:34:17.274Z,98935.45
2018-02-20T23:36:44.842Z,98939.83
2018-02-20T23:39:12.397Z,98946.52
2018-02-20T23:41:40.022Z,98938.41
2018-02-20T23:44:07.801Z,98931.69
2018-02-20T23:46:35.377Z,98933.91
2018-02-20T23:49:02.954Z,98937.80
2018-02-20T23:51:35.341Z,98944.81
2018-02-20T23:54:03.091Z,98943.46
2018-02-20T23:56:30.811Z,98940.89
2018-02-20T23:58:58.417Z,98946.42
